Time;durP1;ratioP1;P1;durP2;ratioP2;P2;SDS_P1;SDS_P2;PMS_P1;PMS_P2;Temp;Humidity;BMP_temperature;BMP_pressure;BME280_temperature;BME280_humidity;BME280_pressure;Samples;Min_cycle;Max_cycle;Signal;HPM_P1;HPM_P2
2023/01/23 04:01:54;;;;;;;1.55;1.20;;;10.00;51.70;;;;;;5173808;23;44909;-62
2023/01/23 04:04:20;;;;;;;1.45;1.25;;;10.00;51.70;;;;;;4873942;23;45605;-63
2023/01/23 04:06:45;;;;;;;2.08;1.40;;;10.00;51.70;;;;;;4882560;29;45188;-64
2023/01/23 04:09:11;;;;;;;1.27;1.17;;;10.00;51.70;;;;;;4846539;29;45243;-64
2023/01/23 04:11:37;;;;;;;2.55;1.70;;;10.00;51.70;;;;;;4873809;29;45200;-64
2023/01/23 04:14:02;;;;;;;2.38;1.45;;;10.00;51.70;;;;;;4874317;29;45278;-64
2023/01/23 04:16:28;;;;;;;3.03;1.80;;;10.00;51.70;;;;;;4871815;29;45339;-64
2023/01/23 04:18:53;;;;;;;1.80;1.25;;;10.00;51.70;;;;;;4882180;28;45800;-64
2023/01/23 04:21:19;;;;;;;2.05;1.65;;;10.00;51.70;;;;;;4871308;29;45464;-64
2023/01/23 04:23:45;;;;;;;2.20;1.42;;;10.00;51.70;;;;;;4859593;29;45453;-64
2023/01/23 04:26:10;;;;;;;1.65;1.25;;;10.00;51.70;;;;;;4870329;29;46514;-65
2023/01/23 04:28:36;;;;;;;2.03;1.60;;;10.00;51.70;;;;;;4879692;29;44920;-64
2023/01/23 04:31:02;;;;;;;1.88;1.40;;;10.10;51.80;;;;;;4854800;29;45428;-64
2023/01/23 04:33:27;;;;;;;2.03;1.50;;;10.00;51.70;;;;;;4830922;29;45375;-64
2023/01/23 04:35:54;;;;;;;2.35;1.58;;;10.00;51.70;;;;;;4849223;29;46648;-64
2023/01/23 04:38:21;;;;;;;1.63;1.30;;;10.00;51.70;;;;;;4879924;29;45434;-64
2023/01/23 04:40:47;;;;;;;2.20;1.48;;;10.00;51.70;;;;;;4872924;29;45262;-65
2023/01/23 04:43:12;;;;;;;1.38;1.10;;;10.00;51.70;;;;;;4875743;29;45498;-64
2023/01/23 04:45:38;;;;;;;1.40;1.27;;;10.00;51.70;;;;;;4859363;29;46906;-65
2023/01/23 04:48:04;;;;;;;1.65;1.23;;;10.00;51.70;;;;;;4863358;29;45269;-64
2023/01/23 04:50:29;;;;;;;1.60;1.40;;;10.00;51.70;;;;;;4880092;29;44731;-64
2023/01/23 04:52:57;;;;;;;2.35;1.48;;;10.00;51.70;;;;;;4845753;29;44711;-64
2023/01/23 04:55:23;;;;;;;2.03;1.33;;;10.00;51.70;;;;;;4891308;28;45202;-64
2023/01/23 04:57:49;;;;;;;2.30;1.40;;;10.00;51.70;;;;;;4867274;29;45208;-64
2023/01/23 05:00:15;;;;;;;2.92;1.58;;;10.00;52.30;;;;;;4877244;29;47197;-65
2023/01/23 05:02:40;;;;;;;1.52;0.98;;;10.00;51.70;;;;;;4885320;28;45667;-64
2023/01/23 05:05:06;;;;;;;1.75;1.35;;;10.10;51.70;;;;;;4891709;28;44963;-64
2023/01/23 05:07:32;;;;;;;1.65;1.10;;;10.00;51.70;;;;;;4890132;28;45272;-63
2023/01/23 05:09:57;;;;;;;1.58;1.40;;;10.00;51.70;;;;;;4860291;29;45414;-64
2023/01/23 05:12:23;;;;;;;2.08;1.30;;;10.00;51.70;;;;;;4858407;29;45131;-64
2023/01/23 05:14:48;;;;;;;2.03;1.20;;;10.00;51.70;;;;;;4872228;29;46686;-64
2023/01/23 05:17:14;;;;;;;1.60;1.27;;;10.00;51.70;;;;;;4876314;29;45052;-64
2023/01/23 05:19:39;;;;;;;1.63;1.25;;;10.00;51.70;;;;;;4858148;29;45395;-64
2023/01/23 05:22:05;;;;;;;1.73;1.42;;;10.00;51.70;;;;;;4872095;29;45249;-64
2023/01/23 05:24:30;;;;;;;1.98;1.50;;;10.00;51.70;;;;;;4879372;29;45653;-64
2023/01/23 05:26:56;;;;;;;2.03;1.35;;;10.00;51.70;;;;;;4895192;28;45072;-64
2023/01/23 05:29:21;;;;;;;1.55;1.25;;;10.00;51.70;;;;;;4859061;29;45547;-65
2023/01/23 05:31:47;;;;;;;2.35;1.63;;;10.00;51.70;;;;;;4871097;29;45006;-64
2023/01/23 05:34:12;;;;;;;1.63;1.30;;;10.00;51.70;;;;;;4860474;29;45260;-64
2023/01/23 05:36:38;;;;;;;1.10;1.00;;;10.00;51.70;;;;;;4867362;29;45235;-64
2023/01/23 05:39:04;;;;;;;1.55;1.27;;;10.00;51.70;;;;;;4869305;29;45783;-64
2023/01/23 05:41:29;;;;;;;1.95;1.40;;;10.00;51.70;;;;;;4858705;29;44893;-64
2023/01/23 05:43:55;;;;;;;2.83;1.60;;;10.00;51.70;;;;;;4864644;29;46831;-64
2023/01/23 05:46:20;;;;;;;1.67;1.42;;;10.00;51.70;;;;;;4874126;29;45129;-64
2023/01/23 05:48:50;;;;;;;1.45;1.20;;;10.00;51.70;;;;;;4865183;29;45395;-65
2023/01/23 05:51:15;;;;;;;2.55;1.52;;;10.00;51.70;;;;;;4860876;29;45239;-65
2023/01/23 05:53:41;;;;;;;2.13;1.58;;;10.00;51.70;;;;;;4893963;28;45315;-64
2023/01/23 05:56:07;;;;;;;1.90;1.42;;;10.00;51.70;;;;;;4861295;29;45396;-64
2023/01/23 05:58:32;;;;;;;1.85;1.27;;;10.00;51.70;;;;;;4892506;28;45362;-64
2023/01/23 06:00:58;;;;;;;2.42;1.30;;;10.00;51.70;;;;;;4877513;29;45729;-64
2023/01/23 06:03:24;;;;;;;2.17;1.45;;;10.00;51.70;;;;;;4889043;28;45560;-64
2023/01/23 06:05:49;;;;;;;1.88;1.40;;;10.00;51.70;;;;;;4876889;29;45513;-65
2023/01/23 06:08:16;;;;;;;1.95;1.48;;;10.00;51.70;;;;;;4882865;28;45619;-65
2023/01/23 06:10:41;;;;;;;2.17;1.38;;;10.00;51.70;;;;;;4871720;29;45385;-65
2023/01/23 06:13:07;;;;;;;1.52;1.17;;;10.00;51.70;;;;;;4867046;29;46960;-65
2023/01/23 06:15:33;;;;;;;2.70;1.60;;;10.00;51.70;;;;;;4881046;29;45313;-65
2023/01/23 06:17:58;;;;;;;2.50;1.80;;;10.00;51.70;;;;;;4885498;28;45477;-65
2023/01/23 06:20:24;;;;;;;2.45;1.58;;;10.00;52.30;;;;;;4857366;29;45465;-64
2023/01/23 06:22:49;;;;;;;1.58;1.27;;;10.00;51.70;;;;;;4863741;29;46174;-64
2023/01/23 06:25:17;;;;;;;1.52;1.20;;;10.00;51.70;;;;;;4860755;29;46393;-64
2023/01/23 06:27:42;;;;;;;1.63;1.30;;;10.00;51.70;;;;;;4859526;29;45428;-64
2023/01/23 06:30:09;;;;;;;2.65;1.60;;;10.00;51.70;;;;;;4853780;29;45203;-65
2023/01/23 06:32:34;;;;;;;1.70;1.45;;;10.00;51.70;;;;;;4868512;29;46080;-66
2023/01/23 06:35:01;;;;;;;2.22;1.50;;;10.00;51.80;;;;;;4861121;29;45203;-64
2023/01/23 06:37:26;;;;;;;2.33;1.50;;;10.00;51.70;;;;;;4859221;29;45210;-64
2023/01/23 06:39:52;;;;;;;1.63;1.17;;;10.00;51.70;;;;;;4858256;29;45299;-64
2023/01/23 06:42:17;;;;;;;1.40;1.00;;;10.00;51.70;;;;;;4887850;28;45478;-65
2023/01/23 06:44:43;;;;;;;1.90;1.30;;;10.00;51.70;;;;;;4858068;29;45494;-65
2023/01/23 06:47:09;;;;;;;1.63;1.33;;;10.00;51.70;;;;;;4880884;28;47011;-65
2023/01/23 06:49:35;;;;;;;1.77;1.42;;;10.00;51.70;;;;;;4865806;29;45675;-65
2023/01/23 06:52:00;;;;;;;1.75;1.40;;;10.00;51.70;;;;;;4872277;29;47109;-64
2023/01/23 06:54:26;;;;;;;2.30;1.30;;;10.00;51.70;;;;;;4864875;29;45533;-65
2023/01/23 06:56:51;;;;;;;1.92;1.42;;;10.00;51.70;;;;;;4876606;29;45447;-64
2023/01/23 06:59:17;;;;;;;2.05;1.48;;;10.00;51.80;;;;;;4890635;28;45437;-64
2023/01/23 07:01:42;;;;;;;1.92;1.27;;;10.00;51.70;;;;;;4875322;28;45508;-64
2023/01/23 07:04:08;;;;;;;2.97;2.08;;;10.00;51.70;;;;;;4893822;28;45495;-64
2023/01/23 07:06:33;;;;;;;3.55;2.08;;;10.00;51.70;;;;;;4868623;29;45199;-65
2023/01/23 07:08:59;;;;;;;3.08;2.17;;;10.00;51.70;;;;;;4881179;29;45548;-63
2023/01/23 07:11:25;;;;;;;3.38;2.28;;;10.00;51.70;;;;;;4892284;28;46075;-66
2023/01/23 07:13:51;;;;;;;3.20;2.15;;;10.00;51.60;;;;;;4895479;28;44952;-65
2023/01/23 07:16:16;;;;;;;2.63;1.98;;;10.00;51.70;;;;;;4866853;29;45474;-63
2023/01/23 07:18:42;;;;;;;2.92;2.20;;;10.10;51.80;;;;;;4877982;29;46578;-64
2023/01/23 07:21:08;;;;;;;3.15;2.13;;;10.30;51.70;;;;;;4889161;28;45585;-62
2023/01/23 07:23:33;;;;;;;2.70;1.88;;;10.40;51.40;;;;;;4857661;29;46042;-64
2023/01/23 07:26:00;;;;;;;2.17;1.65;;;10.70;51.10;;;;;;4875220;29;44950;-63
2023/01/23 07:28:26;;;;;;;2.88;1.88;;;10.90;50.80;;;;;;4877969;29;45532;-64
2023/01/23 07:30:51;;;;;;;4.55;1.80;;;11.10;50.60;;;;;;4881986;29;45417;-65
2023/01/23 07:33:17;;;;;;;2.53;1.67;;;11.20;50.40;;;;;;4870201;29;45229;-62
2023/01/23 07:35:42;;;;;;;2.22;1.67;;;11.40;50.20;;;;;;4879212;29;45438;-62
2023/01/23 07:38:08;;;;;;;2.17;1.70;;;11.60;50.00;;;;;;4864958;29;45544;-60
2023/01/23 07:40:33;;;;;;;2.60;2.05;;;11.70;49.80;;;;;;4878475;29;45239;-67
2023/01/23 07:42:59;;;;;;;4.97;1.75;;;11.90;49.70;;;;;;4844631;29;45328;-67
2023/01/23 07:45:24;;;;;;;2.50;1.88;;;12.00;49.60;;;;;;4878760;29;45291;-62
2023/01/23 07:47:50;;;;;;;2.83;1.55;;;12.10;49.50;;;;;;4863454;29;45488;-61
2023/01/23 07:50:16;;;;;;;1.90;1.67;;;12.20;49.40;;;;;;4862639;29;45022;-61
2023/01/23 07:52:41;;;;;;;2.10;1.40;;;12.20;49.40;;;;;;4868158;29;45364;-61
2023/01/23 07:55:07;;;;;;;2.95;1.55;;;12.20;49.40;;;;;;4873633;29;46622;-63
2023/01/23 07:57:33;;;;;;;2.78;1.65;;;12.30;49.50;;;;;;4883711;29;45411;-60
2023/01/23 07:59:58;;;;;;;2.83;1.70;;;12.50;49.30;;;;;;4878973;29;45230;-61
2023/01/23 08:02:24;;;;;;;3.22;1.50;;;12.70;49.20;;;;;;4863156;29;45331;-63
2023/01/23 08:04:50;;;;;;;4.50;1.50;;;12.80;49.00;;;;;;4890069;28;45089;-63
2023/01/23 08:07:15;;;;;;;2.33;1.30;;;13.00;48.90;;;;;;4878192;28;45219;-59
2023/01/23 08:09:41;;;;;;;2.28;1.55;;;13.10;48.60;;;;;;4862889;29;46150;-63
2023/01/23 08:12:06;;;;;;;2.72;1.83;;;13.30;48.60;;;;;;4873901;29;45343;-65
2023/01/23 08:14:32;;;;;;;1.90;1.40;;;13.40;48.30;;;;;;4878570;29;45456;-66
2023/01/23 08:16:57;;;;;;;2.08;1.45;;;13.60;48.20;;;;;;4875830;29;45662;-66
2023/01/23 08:19:26;;;;;;;2.05;1.50;;;13.70;48.10;;;;;;4862033;29;45874;-62
2023/01/23 08:21:51;;;;;;;2.38;1.60;;;13.80;48.00;;;;;;4882097;29;45566;-64
2023/01/23 08:24:17;;;;;;;2.15;1.35;;;13.90;47.90;;;;;;4892480;28;45024;-64
2023/01/23 08:26:42;;;;;;;2.40;1.73;;;14.00;47.80;;;;;;4878289;29;45558;-62
2023/01/23 08:29:09;;;;;;;2.42;1.48;;;14.10;47.80;;;;;;4880431;29;45359;-64
2023/01/23 08:31:35;;;;;;;2.03;1.40;;;14.20;47.60;;;;;;4874073;29;45549;-66
2023/01/23 08:34:01;;;;;;;2.72;1.40;;;14.20;47.70;;;;;;4863198;29;45182;-63
2023/01/23 08:36:26;;;;;;;2.30;1.52;;;14.20;47.70;;;;;;4872846;29;45558;-64
2023/01/23 08:38:52;;;;;;;2.33;1.85;;;14.10;47.80;;;;;;4846552;29;47174;-64
2023/01/23 08:41:17;;;;;;;2.53;1.95;;;14.20;47.70;;;;;;4860241;29;46029;-65
2023/01/23 08:43:43;;;;;;;2.53;1.70;;;14.40;47.60;;;;;;4875345;29;45200;-63
2023/01/23 08:46:09;;;;;;;2.38;1.73;;;14.50;47.50;;;;;;4861002;29;45627;-62
2023/01/23 08:48:34;;;;;;;2.53;1.75;;;14.70;47.30;;;;;;4861570;29;45494;-65
2023/01/23 08:51:05;;;;;;;4.55;1.70;;;14.90;47.10;;;;;;4872787;29;44682;-66
2023/01/23 08:53:31;;;;;;;2.63;1.90;;;15.10;46.80;;;;;;4892943;28;45255;-64
2023/01/23 08:56:00;;;;;;;2.83;1.80;;;15.30;46.70;;;;;;4855490;29;46110;-63
2023/01/23 08:58:26;;;;;;;2.38;1.67;;;15.40;46.40;;;;;;4825270;29;46881;-64
2023/01/23 09:00:51;;;;;;;2.15;1.73;;;15.60;46.40;;;;;;4855352;29;45537;-63
2023/01/23 09:03:17;;;;;;;2.35;1.55;;;15.70;46.30;;;;;;4870791;29;44990;-63
2023/01/23 09:05:43;;;;;;;2.55;1.70;;;15.80;46.30;;;;;;4876680;29;45633;-60
2023/01/23 09:08:08;;;;;;;3.13;1.95;;;15.90;46.20;;;;;;4877348;29;44971;-60
2023/01/23 09:10:35;;;;;;;1.73;1.20;;;16.00;46.10;;;;;;4890783;28;45206;-58
2023/01/23 09:13:00;;;;;;;1.90;1.50;;;16.10;46.10;;;;;;4871394;29;44995;-60
2023/01/23 09:15:26;;;;;;;2.53;1.95;;;16.10;46.00;;;;;;4879268;29;44983;-61
2023/01/23 09:17:51;;;;;;;2.35;1.70;;;16.10;46.10;;;;;;4875831;29;45486;-59
2023/01/23 09:20:17;;;;;;;3.38;1.75;;;16.00;46.30;;;;;;4880467;29;45179;-65
2023/01/23 09:22:43;;;;;;;2.33;1.65;;;16.10;46.40;;;;;;4876467;29;45215;-60
2023/01/23 09:25:09;;;;;;;4.32;1.90;;;16.20;46.30;;;;;;4857784;29;45426;-61
2023/01/23 09:27:34;;;;;;;3.25;1.98;;;16.30;46.20;;;;;;4879493;29;44966;-61
2023/01/23 09:30:00;;;;;;;2.08;1.55;;;16.50;46.10;;;;;;4876231;29;45510;-62
2023/01/23 09:32:25;;;;;;;2.88;1.83;;;16.60;45.90;;;;;;4869302;28;45470;-61
2023/01/23 09:34:53;;;;;;;2.85;1.70;;;16.80;45.70;;;;;;4872281;29;45325;-61
2023/01/23 09:37:19;;;;;;;3.22;1.70;;;17.00;46.20;;;;;;4890479;28;46080;-62
2023/01/23 09:39:44;;;;;;;2.55;1.73;;;17.10;45.40;;;;;;4893193;28;46287;-63
2023/01/23 09:42:21;;;;;;;3.25;1.73;;;17.30;45.30;;;;;;4864001;29;45187;-60
2023/01/23 09:44:54;;;;;;;2.80;1.70;;;17.40;45.00;;;;;;4858430;29;45380;-56
2023/01/23 09:47:59;;;;;;;1.80;1.35;;;17.60;44.80;;;;;;4870116;29;47306;-62
2023/01/23 09:50:36;;;;;;;2.15;1.45;;;17.70;44.50;;;;;;4894966;28;45509;-58
2023/01/23 09:53:11;;;;;;;3.63;1.75;;;17.80;44.50;;;;;;4864141;29;45358;-61
2023/01/23 09:56:02;;;;;;;2.67;1.45;;;17.90;44.70;;;;;;4874063;29;45648;-57
2023/01/23 09:58:32;;;;;;;3.33;1.30;;;17.90;44.70;;;;;;4878835;28;46364;-60
2023/01/23 10:00:58;;;;;;;3.35;1.60;;;17.90;44.90;;;;;;4874676;29;44890;-64
2023/01/23 10:03:25;;;;;;;2.85;1.65;;;17.80;45.00;;;;;;4857772;29;45645;-63
2023/01/23 10:06:20;;;;;;;4.68;1.70;;;17.90;45.60;;;;;;4858026;29;44755;-61
2023/01/23 10:09:07;;;;;;;4.60;1.40;;;18.00;44.70;;;;;;4873756;29;46269;-62
2023/01/23 10:11:48;;;;;;;2.55;1.38;;;18.20;44.50;;;;;;4854444;29;45302;-61
2023/01/23 10:14:49;;;;;;;2.47;1.48;;;18.40;44.60;;;;;;4842842;29;45492;-63
2023/01/23 10:17:36;;;;;;;2.05;1.50;;;18.50;44.10;;;;;;4889489;28;45776;-62
2023/01/23 10:20:35;;;;;;;5.32;1.50;;;18.60;43.90;;;;;;4871832;29;46112;-62
2023/01/23 10:23:31;;;;;;;2.63;1.77;;;18.80;43.60;;;;;;4853115;29;44729;-60
2023/01/23 10:25:56;;;;;;;2.00;1.45;;;18.90;43.50;;;;;;4872911;29;45164;-60
2023/01/23 10:28:37;;;;;;;3.20;1.45;;;19.10;43.90;;;;;;4893319;28;44926;-63
2023/01/23 10:31:29;;;;;;;1.80;1.42;;;19.20;43.50;;;;;;4852445;29;45915;-61
2023/01/23 10:34:12;;;;;;;1.67;1.15;;;19.30;43.30;;;;;;4877008;29;45271;-64
2023/01/23 10:36:52;;;;;;;2.08;1.70;;;19.40;43.30;;;;;;4891786;28;45260;-63
2023/01/23 10:39:21;;;;;;;1.40;1.30;;;19.40;43.30;;;;;;4858473;29;45230;-61
2023/01/23 10:41:47;;;;;;;1.95;1.30;;;19.40;43.60;;;;;;4857428;29;45887;-62
2023/01/23 10:44:16;;;;;;;2.00;1.52;;;19.30;43.90;;;;;;4890912;28;45024;-62
2023/01/23 10:46:51;;;;;;;1.27;1.13;;;19.30;43.90;;;;;;4871624;29;45518;-60
2023/01/23 10:49:38;;;;;;;1.98;1.45;;;19.40;43.80;;;;;;4851106;29;44738;-62
2023/01/23 10:52:04;;;;;;;2.42;1.40;;;19.60;43.60;;;;;;4889415;28;45077;-61
2023/01/23 10:54:30;;;;;;;2.80;1.50;;;19.70;43.70;;;;;;4861580;29;45478;-61
2023/01/23 10:57:00;;;;;;;3.53;1.60;;;19.80;43.60;;;;;;4860517;29;45502;-58
2023/01/23 10:59:31;;;;;;;3.15;1.52;;;20.00;43.30;;;;;;4885323;28;45345;-61
2023/01/23 11:02:02;;;;;;;1.70;1.52;;;20.10;43.30;;;;;;4858274;29;45887;-62
2023/01/23 11:04:29;;;;;;;2.15;1.38;;;20.20;43.00;;;;;;4873748;29;45411;-62
2023/01/23 11:07:13;;;;;;;1.50;1.38;;;20.30;43.00;;;;;;4842815;29;45355;-65
2023/01/23 11:09:44;;;;;;;3.80;1.40;;;20.40;42.60;;;;;;4887314;28;45453;-62
2023/01/23 11:12:31;;;;;;;2.80;1.60;;;20.60;42.70;;;;;;4875909;29;45544;-60
2023/01/23 11:15:32;;;;;;;3.95;1.60;;;20.60;42.60;;;;;;4862855;29;45027;-61
2023/01/23 11:17:58;;;;;;;1.45;1.30;;;20.70;41.90;;;;;;4836045;29;46198;-57
2023/01/23 11:20:37;;;;;;;4.30;1.60;;;20.80;42.60;;;;;;4885866;29;45363;-60
2023/01/23 11:23:14;;;;;;;1.98;1.35;;;20.70;42.10;;;;;;4848871;29;47004;-59
2023/01/23 11:25:50;;;;;;;2.58;1.20;;;20.60;42.50;;;;;;4890581;28;45129;-57
2023/01/23 11:28:45;;;;;;;2.08;1.35;;;20.60;42.50;;;;;;4863433;29;45427;-58
2023/01/23 11:31:15;;;;;;;2.20;1.77;;;20.60;42.40;;;;;;4875557;29;45273;-58
2023/01/23 11:34:11;;;;;;;2.55;1.63;;;20.70;42.80;;;;;;4860082;29;47200;-60
2023/01/23 11:36:42;;;;;;;1.98;1.38;;;20.80;42.40;;;;;;4892702;28;44980;-62
2023/01/23 11:39:31;;;;;;;2.33;1.65;;;20.90;42.60;;;;;;4876755;29;45871;-62
2023/01/23 11:41:57;;;;;;;2.53;1.80;;;21.00;42.90;;;;;;4880523;29;45804;-61
2023/01/23 11:44:23;;;;;;;1.42;1.20;;;21.10;42.50;;;;;;4892519;28;46103;-61
2023/01/23 11:47:06;;;;;;;2.20;1.58;;;21.10;42.30;;;;;;4860023;29;45374;-62
2023/01/23 11:49:53;;;;;;;1.60;1.50;;;21.20;42.50;;;;;;4880945;29;44747;-57
2023/01/23 11:52:36;;;;;;;1.88;1.50;;;21.30;41.90;;;;;;4877969;29;45351;-57
2023/01/23 11:55:11;;;;;;;;;;;21.40;41.60;;;;;;4877879;29;45515;-63
2023/01/23 11:58:02;;;;;;;1.73;1.40;;;21.50;41.20;;;;;;4896472;28;44658;-63
2023/01/23 12:00:41;;;;;;;3.95;1.50;;;21.60;41.50;;;;;;4878991;29;44898;-66
2023/01/23 12:03:31;;;;;;;2.22;1.48;;;21.60;41.70;;;;;;4852272;29;45654;-64
2023/01/23 12:06:08;;;;;;;1.60;1.50;;;21.60;41.60;;;;;;4859168;29;45947;-64
2023/01/23 12:08:36;;;;;;;2.72;1.63;;;21.70;41.80;;;;;;4856942;29;46462;-63
2023/01/23 12:11:02;;;;;;;1.70;1.42;;;21.70;41.80;;;;;;4865248;29;45198;-62
2023/01/23 12:13:38;;;;;;;4.38;1.50;;;21.60;42.20;;;;;;4878409;29;45163;-66
2023/01/23 12:16:08;;;;;;;2.65;1.48;;;21.60;41.90;;;;;;4877480;29;45344;-64
2023/01/23 12:18:43;;;;;;;1.77;1.40;;;21.60;42.20;;;;;;4864342;29;45503;-63
2023/01/23 12:21:25;;;;;;;1.65;1.40;;;21.60;41.90;;;;;;4868445;29;45306;-62
2023/01/23 12:24:12;;;;;;;1.63;1.40;;;21.70;41.90;;;;;;4875972;29;44807;-62
2023/01/23 12:26:46;;;;;;;1.88;1.30;;;21.80;41.80;;;;;;4878153;29;46208;-64
2023/01/23 12:29:43;;;;;;;1.40;1.20;;;21.90;41.80;;;;;;4879093;29;45349;-64
2023/01/23 12:32:08;;;;;;;2.40;1.52;;;22.10;41.20;;;;;;4880387;29;45222;-63
2023/01/23 12:34:38;;;;;;;1.40;1.15;;;22.10;41.60;;;;;;4878893;29;45348;-66
2023/01/23 12:37:13;;;;;;;1.52;1.27;;;22.20;41.40;;;;;;4867095;29;45598;-63
2023/01/23 12:39:55;;;;;;;1.38;1.20;;;22.30;41.50;;;;;;4848275;29;45161;-64
2023/01/23 12:42:36;;;;;;;1.48;1.00;;;22.30;41.50;;;;;;4896885;28;45517;-62
2023/01/23 12:45:10;;;;;;;1.50;1.23;;;22.30;41.70;;;;;;4853691;29;45864;-64
2023/01/23 12:48:05;;;;;;;1.48;1.30;;;22.30;41.50;;;;;;4863212;29;45182;-64
2023/01/23 12:50:37;;;;;;;1.45;1.05;;;22.40;41.30;;;;;;4890571;28;45180;-65
2023/01/23 12:53:09;;;;;;;1.37;1.10;;;22.40;41.60;;;;;;4879112;29;45112;-63
2023/01/23 12:55:41;;;;;;;1.15;0.93;;;22.50;41.50;;;;;;4893414;28;45624;-63
2023/01/23 12:58:11;;;;;;;1.58;1.25;;;22.60;41.70;;;;;;4856578;29;46696;-64
2023/01/23 13:00:55;;;;;;;1.65;1.30;;;22.60;41.60;;;;;;4874817;29;45256;-64
2023/01/23 13:03:40;;;;;;;1.60;1.05;;;22.70;41.10;;;;;;4879428;28;45009;-65
2023/01/23 13:06:24;;;;;;;1.70;1.17;;;22.70;41.50;;;;;;4876512;29;44798;-64
2023/01/23 13:08:52;;;;;;;1.30;1.15;;;22.80;41.00;;;;;;4873232;29;45877;-65
2023/01/23 13:11:49;;;;;;;1.67;1.23;;;22.70;41.40;;;;;;4879567;29;45494;-63
2023/01/23 13:14:30;;;;;;;1.73;1.42;;;22.60;41.20;;;;;;4865003;29;45377;-65
2023/01/23 13:16:57;;;;;;;1.33;1.23;;;22.50;41.50;;;;;;4864604;29;45749;-64
2023/01/23 13:22:20;;;;;;;3.63;1.30;;;22.60;41.50;;;;;;4888356;28;45366;-63
2023/01/23 13:25:09;;;;;;;1.77;1.40;;;22.70;41.30;;;;;;4878254;29;45477;-64
2023/01/23 13:27:49;;;;;;;2.13;1.50;;;22.80;41.40;;;;;;4874817;29;45324;-66
2023/01/23 13:30:34;;;;;;;3.17;1.35;;;22.80;41.70;;;;;;4880619;29;45259;-64
2023/01/23 13:33:05;;;;;;;1.70;1.17;;;22.90;41.40;;;;;;4877503;28;45267;-62
2023/01/23 13:35:43;;;;;;;2.25;1.30;;;22.90;41.50;;;;;;4878934;29;45575;-63
2023/01/23 13:38:21;;;;;;;1.30;1.20;;;23.00;41.20;;;;;;4868376;29;45847;-64
2023/01/23 13:41:07;;;;;;;2.00;1.30;;;23.00;41.10;;;;;;4876847;29;44922;-61
2023/01/23 13:43:54;;;;;;;1.83;1.27;;;23.10;41.20;;;;;;4886188;29;45318;-64
2023/01/23 13:46:52;;;;;;;2.28;1.30;;;23.10;41.30;;;;;;4876626;29;45296;-65
2023/01/23 13:58:28;;;;;;;1.27;1.17;;;23.30;40.90;;;;;;4866776;29;45989;-64
2023/01/23 14:06:37;;;;;;;1.45;1.33;;;23.50;41.30;;;;;;4865887;29;45218;-64
2023/01/23 14:09:02;;;;;;;1.58;1.17;;;23.50;41.10;;;;;;4881237;29;45258;-64
2023/01/23 14:11:36;;;;;;;1.35;1.13;;;23.50;41.10;;;;;;4871191;29;45251;-65
2023/01/23 14:16:46;;;;;;;2.30;1.20;;;23.50;41.00;;;;;;4866013;29;45113;-63
2023/01/23 14:19:25;;;;;;;3.63;1.05;;;23.50;41.10;;;;;;4859660;29;45170;-59
2023/01/23 14:22:03;;;;;;;1.60;1.30;;;23.30;41.10;;;;;;4847513;29;45429;-62
2023/01/23 14:24:43;;;;;;;1.15;1.05;;;23.30;41.20;;;;;;4867068;29;45260;-62
2023/01/23 14:27:27;;;;;;;1.20;0.98;;;23.30;41.20;;;;;;4870749;29;45599;-60
2023/01/23 14:30:25;;;;;;;1.77;1.15;;;23.40;41.40;;;;;;4876117;29;45826;-60
2023/01/23 14:32:50;;;;;;;1.35;1.25;;;23.40;41.00;;;;;;4884205;28;45431;-62
2023/01/23 14:35:30;;;;;;;1.77;1.13;;;23.50;41.40;;;;;;4853509;29;47462;-63
2023/01/23 14:38:01;;;;;;;4.68;1.10;;;23.50;41.00;;;;;;4882775;29;44808;-62
2023/01/23 14:40:27;;;;;;;1.40;1.27;;;23.60;41.30;;;;;;4878182;29;45241;-63
2023/01/23 14:43:04;;;;;;;1.75;1.20;;;23.60;41.30;;;;;;4885907;29;45731;-63
2023/01/23 14:45:33;;;;;;;1.45;1.10;;;23.60;41.20;;;;;;4864504;29;45513;-64
2023/01/23 14:47:58;;;;;;;3.80;1.02;;;23.70;41.10;;;;;;4863989;29;45171;-63
2023/01/23 14:50:25;;;;;;;1.15;0.90;;;23.80;41.10;;;;;;4876597;29;45372;-62
2023/01/23 14:53:17;;;;;;;1.00;0.80;;;23.80;41.10;;;;;;4854920;29;45206;-63
2023/01/23 14:55:45;;;;;;;1.95;1.50;;;23.90;40.70;;;;;;4865546;29;47046;-62
2023/01/23 14:58:14;;;;;;;1.17;1.00;;;23.90;41.10;;;;;;4867698;29;45268;-63
2023/01/23 15:00:39;;;;;;;1.42;1.08;;;23.90;41.00;;;;;;4859459;29;44965;-64
2023/01/23 15:03:07;;;;;;;2.00;1.25;;;23.90;41.00;;;;;;4853279;29;44758;-62
2023/01/23 15:05:32;;;;;;;1.10;1.00;;;23.90;41.00;;;;;;4875705;29;44907;-62
2023/01/23 15:08:19;;;;;;;1.30;1.20;;;24.00;41.10;;;;;;4894517;28;44609;-63
2023/01/23 15:10:46;;;;;;;1.48;1.17;;;24.00;40.60;;;;;;4869477;29;45242;-63
2023/01/23 15:13:28;;;;;;;1.20;1.10;;;24.00;41.00;;;;;;4869740;29;45100;-60
2023/01/23 15:16:01;;;;;;;1.83;1.20;;;24.00;41.00;;;;;;4878355;29;46251;-62
2023/01/23 15:18:27;;;;;;;;;;;24.10;40.90;;;;;;4901179;28;44679;-63
2023/01/23 15:20:54;;;;;;;1.13;0.90;;;24.10;40.50;;;;;;4862660;29;45317;-61
2023/01/23 15:23:21;;;;;;;2.40;1.15;;;24.00;41.00;;;;;;4865588;29;45891;-62
2023/01/23 15:25:47;;;;;;;1.38;1.13;;;24.10;41.00;;;;;;4898265;28;45455;-63
2023/01/23 15:28:47;;;;;;;1.15;1.00;;;24.10;41.00;;;;;;4846945;29;45199;-60
2023/01/23 15:31:26;;;;;;;1.55;1.38;;;24.10;40.60;;;;;;4877430;29;44739;-62
2023/01/23 15:33:52;;;;;;;1.17;0.82;;;24.10;40.70;;;;;;4896130;28;45090;-63
2023/01/23 15:36:26;;;;;;;1.30;1.20;;;24.10;40.90;;;;;;4864246;29;47540;-64
2023/01/23 15:38:51;;;;;;;2.08;0.80;;;24.10;40.80;;;;;;4891075;28;45214;-62
2023/01/23 15:41:17;;;;;;;1.48;1.13;;;24.20;41.00;;;;;;4867486;29;45439;-63
2023/01/23 15:43:43;;;;;;;1.98;0.98;;;24.20;41.00;;;;;;4880839;29;45719;-63
2023/01/23 15:46:11;;;;;;;1.23;1.05;;;24.20;41.00;;;;;;4881988;29;45258;-62
2023/01/23 15:48:37;;;;;;;1.20;1.00;;;24.20;40.90;;;;;;4875642;29;45406;-63
2023/01/23 15:51:03;;;;;;;2.83;1.40;;;24.20;41.00;;;;;;4884934;29;45239;-63
2023/01/23 15:53:28;;;;;;;1.67;1.20;;;24.20;40.90;;;;;;4883278;29;45208;-64
2023/01/23 15:55:54;;;;;;;1.40;1.20;;;24.00;40.70;;;;;;4894648;28;45188;-62
2023/01/23 15:58:19;;;;;;;2.30;1.40;;;23.90;41.00;;;;;;4889055;29;45434;-63
2023/01/23 16:00:45;;;;;;;1.75;1.40;;;23.80;41.30;;;;;;4881484;29;45591;-63
2023/01/23 16:03:13;;;;;;;2.05;1.30;;;23.80;41.30;;;;;;4862688;29;45466;-63
2023/01/23 16:05:39;;;;;;;4.07;1.10;;;23.80;41.30;;;;;;4863758;29;45322;-63
2023/01/23 16:08:04;;;;;;;1.20;1.10;;;23.90;41.30;;;;;;4878993;29;45225;-64
2023/01/23 16:10:36;;;;;;;1.77;1.08;;;23.90;41.20;;;;;;4859449;29;44834;-63
2023/01/23 16:13:02;;;;;;;2.08;1.10;;;24.00;41.20;;;;;;4862894;29;46046;-65
2023/01/23 16:15:29;;;;;;;2.00;1.02;;;24.00;41.20;;;;;;4893954;28;45641;-63
2023/01/23 16:17:55;;;;;;;1.77;1.20;;;24.00;41.10;;;;;;4853632;29;45295;-64
2023/01/23 16:20:43;;;;;;;2.78;1.27;;;24.10;41.10;;;;;;4867842;29;44955;-63
2023/01/23 16:23:14;;;;;;;2.25;1.25;;;24.10;40.70;;;;;;4866383;29;45351;-64
2023/01/23 16:25:41;;;;;;;1.13;0.80;;;24.20;40.90;;;;;;4856503;29;47130;-63
2023/01/23 16:28:15;;;;;;;1.20;1.10;;;24.20;41.00;;;;;;4893755;28;46659;-63
2023/01/23 16:30:41;;;;;;;1.40;1.20;;;24.30;40.90;;;;;;4877645;29;44718;-64
2023/01/23 16:33:07;;;;;;;1.08;0.98;;;24.30;40.90;;;;;;4870077;29;45484;-63
2023/01/23 16:35:32;;;;;;;1.63;0.90;;;24.30;40.90;;;;;;4894122;28;46286;-63
2023/01/23 16:37:58;;;;;;;1.50;1.27;;;24.40;40.90;;;;;;4880970;29;45221;-64
2023/01/23 16:40:25;;;;;;;1.40;1.10;;;24.40;40.90;;;;;;4864921;29;44684;-63
2023/01/23 16:42:51;;;;;;;1.63;1.05;;;24.40;40.90;;;;;;4868652;29;45235;-64
2023/01/23 16:45:21;;;;;;;1.25;1.15;;;24.40;40.90;;;;;;4880102;29;46212;-68
2023/01/23 16:47:46;;;;;;;1.83;1.10;;;24.40;40.80;;;;;;4855624;29;45329;-65
2023/01/23 16:50:36;;;;;;;1.40;1.17;;;24.40;40.80;;;;;;4851007;29;44923;-66
2023/01/23 16:53:08;;;;;;;1.30;1.05;;;24.50;40.40;;;;;;4863658;29;45625;-65
2023/01/23 16:55:38;;;;;;;2.13;1.17;;;24.40;40.60;;;;;;4896313;28;47384;-66
2023/01/23 16:58:05;;;;;;;1.65;1.10;;;24.40;40.80;;;;;;4860482;29;46063;-63
2023/01/23 17:00:30;;;;;;;1.90;0.93;;;24.40;40.80;;;;;;4873956;29;45434;-63
2023/01/23 17:02:57;;;;;;;2.70;1.15;;;24.30;40.80;;;;;;4871764;29;45371;-64
2023/01/23 17:05:22;;;;;;;2.03;1.17;;;24.30;40.90;;;;;;4860468;29;46077;-64
2023/01/23 17:07:48;;;;;;;2.33;1.13;;;24.30;40.90;;;;;;4881696;29;45188;-64
2023/01/23 17:10:19;;;;;;;1.40;1.20;;;24.30;40.90;;;;;;4850980;29;45413;-65
2023/01/23 17:12:46;;;;;;;1.52;1.10;;;24.40;40.90;;;;;;4874904;29;45231;-64
2023/01/23 17:15:23;;;;;;;1.55;1.40;;;24.20;40.80;;;;;;4883802;29;46287;-64
2023/01/23 17:17:50;;;;;;;1.63;1.02;;;24.10;41.00;;;;;;4872252;29;45364;-65
2023/01/23 17:20:15;;;;;;;4.63;1.20;;;24.00;41.20;;;;;;4853129;29;45295;-65
2023/01/23 17:22:41;;;;;;;1.60;1.27;;;24.00;41.30;;;;;;4858708;29;45498;-63
2023/01/23 17:25:15;;;;;;;1.88;1.20;;;24.10;41.30;;;;;;4860938;29;45573;-66
2023/01/23 17:27:40;;;;;;;1.23;1.05;;;24.10;41.10;;;;;;4888991;28;45159;-64